»·PEaware :: SWA3600 KDAL-KDCA

SWA3600 :: KDAL-KDCA

FLIGHT INFORMATION

Flight Status: Arrived
Operator:
Southwest Airlines
More flights by this operator :: More flights under this callsign
Pilot: Drew L. (13237)
Aircraft: BOEING 737-700
(B737)
More flights by this aircraft type
Origin: KDAL Dallas Love
United States
Destination: KDCA Ronald Reagan Washington Natl
United States
More flights between these airports :: More routes between these airports
Route: LNDRE4 LOOSE MEM J42 FOUNT/N0447F350 J42 BKW TRUPS4
File this flight plan on PilotEdge
Remarks: RMK / SIMBRIEF
Altitude:
(Current/Filed)
37,000ft
Speed:
(Current/Filed)
450kts
Departed: 25-May-19 10:33 PM
Arrived: 26-May-19 12:57 AM
Distance/Time
Traveled:
1026nm/2:24
Distance/Time
To Go:
Arrived

Flight Plot

Page will automatically refresh every two minutes.

Flight plan parsing failed; only flown route is shown


Map Options




Map Legend


Flown Route
Filed Route
Departure Airport
Arrival Airport
Navaid (VOR, NDB)
Fix

Horizontal Profiles

Position Reports

Time Latitude Longitude Heading Altitude Ground
Speed
25-May-19 22:08 32.846507 -96.850405 179 486ft 0kts
25-May-19 22:09 32.846507 -96.850405 179 486ft 0kts
25-May-19 22:10 32.846507 -96.850405 179 486ft 0kts
25-May-19 22:11 32.846507 -96.850405 179 486ft 0kts
25-May-19 22:12 32.846507 -96.850405 179 486ft 0kts
25-May-19 22:13 32.846507 -96.850405 180 486ft 0kts
25-May-19 22:14 32.846507 -96.850405 180 486ft 0kts
25-May-19 22:15 32.846507 -96.850405 180 486ft 0kts
25-May-19 22:16 32.846507 -96.850405 180 486ft 0kts
25-May-19 22:17 32.846507 -96.850405 180 486ft 0kts
25-May-19 22:18 32.846507 -96.850405 180 486ft 0kts
25-May-19 22:19 32.846837 -96.850405 180 487ft 2kts
25-May-19 22:20 32.847096 -96.850404 179 487ft 0kts
25-May-19 22:21 32.847096 -96.850404 179 487ft 0kts
25-May-19 22:22 32.847096 -96.850404 179 487ft 0kts
25-May-19 22:23 32.847481 -96.852527 270 483ft 16kts
25-May-19 22:24 32.848566 -96.857743 257 471ft 25kts
25-May-19 22:25 32.852221 -96.862004 288 456ft 6kts
25-May-19 22:26 32.852223 -96.862096 258 455ft 0kts
25-May-19 22:27 32.852223 -96.862096 258 455ft 0kts
25-May-19 22:28 32.852223 -96.862096 258 455ft 0kts
25-May-19 22:29 32.852223 -96.862096 258 455ft 0kts
25-May-19 22:30 32.852223 -96.862096 258 455ft 0kts
25-May-19 22:31 32.852047 -96.862445 229 455ft 9kts
25-May-19 22:32 32.841389 -96.851915 137 482ft 156kts
25-May-19 22:33 32.808975 -96.813728 134 2744ft 185kts
25-May-19 22:34 32.768736 -96.762410 134 4811ft 244kts
25-May-19 22:35 32.716870 -96.701363 137 7565ft 272kts
25-May-19 22:36 32.682229 -96.620133 98 10357ft 299kts
25-May-19 22:37 32.704578 -96.521677 55 12613ft 340kts
25-May-19 22:38 32.780646 -96.442966 37 14672ft 377kts
25-May-19 22:39 32.864142 -96.364174 40 17246ft 393kts
25-May-19 22:40 32.923284 -96.253886 69 19546ft 408kts
25-May-19 22:41 32.964318 -96.125189 69 21666ft 422kts
25-May-19 22:42 33.007134 -95.992592 68 23598ft 436kts
25-May-19 22:43 33.051355 -95.856044 68 25378ft 449kts
25-May-19 22:44 33.095791 -95.714669 69 27128ft 458kts
25-May-19 22:45 33.139801 -95.571906 68 29054ft 457kts
25-May-19 22:46 33.183821 -95.429691 68 30797ft 456kts
25-May-19 22:47 33.228039 -95.287470 68 32145ft 460kts
25-May-19 22:48 33.272578 -95.144659 68 33550ft 459kts
25-May-19 22:49 33.317132 -95.002278 67 34885ft 455kts
25-May-19 22:50 33.361189 -94.861974 67 36267ft 447kts
25-May-19 22:51 33.404746 -94.723795 67 37123ft 450kts
25-May-19 22:52 33.450407 -94.579477 67 37126ft 478kts
25-May-19 22:53 33.498181 -94.428958 67 37121ft 485kts
25-May-19 22:54 33.546203 -94.278366 67 37116ft 484kts
25-May-19 22:55 33.591334 -94.125517 69 37118ft 485kts
25-May-19 22:56 33.635646 -93.972543 69 37119ft 485kts
25-May-19 22:57 33.680007 -93.820091 69 37120ft 485kts
25-May-19 22:58 33.724738 -93.667005 68 37122ft 484kts
25-May-19 22:59 33.769514 -93.514417 68 37126ft 485kts
25-May-19 23:00 33.814390 -93.362116 68 37135ft 485kts
25-May-19 23:01 33.859548 -93.209622 69 37128ft 485kts
25-May-19 23:02 33.906806 -93.058085 64 37128ft 482kts
25-May-19 23:03 33.958639 -92.910974 65 37130ft 475kts
25-May-19 23:04 34.009876 -92.764452 65 37132ft 474kts
25-May-19 23:05 34.061926 -92.618932 63 37130ft 473kts
25-May-19 23:06 34.116053 -92.474758 63 37138ft 473kts
25-May-19 23:07 34.170162 -92.330022 63 37136ft 473kts
25-May-19 23:08 34.224317 -92.184702 63 37135ft 473kts
25-May-19 23:09 34.278123 -92.039655 63 37137ft 474kts
25-May-19 23:10 34.331782 -91.894319 63 37137ft 474kts
25-May-19 23:11 34.385218 -91.748895 63 37138ft 474kts
25-May-19 23:12 34.438561 -91.603035 63 37139ft 474kts
25-May-19 23:13 34.491788 -91.456798 63 37140ft 473kts
25-May-19 23:14 34.544804 -91.310492 64 37135ft 473kts
25-May-19 23:15 34.597474 -91.164648 64 37136ft 473kts
25-May-19 23:16 34.649781 -91.019082 64 37142ft 467kts
25-May-19 23:17 34.701218 -90.875269 64 37147ft 465kts
25-May-19 23:18 34.752503 -90.731219 64 37147ft 466kts
25-May-19 23:19 34.803679 -90.586798 64 37148ft 466kts
25-May-19 23:20 34.854708 -90.442113 64 37148ft 465kts
25-May-19 23:21 34.905788 -90.296665 65 37142ft 467kts
25-May-19 23:22 34.956833 -90.150768 65 37138ft 472kts
25-May-19 23:23 35.008360 -90.002697 65 37145ft 476kts
25-May-19 23:24 35.060507 -89.854194 65 37146ft 479kts
25-May-19 23:25 35.112356 -89.704391 65 37141ft 478kts
25-May-19 23:26 35.164257 -89.554822 65 37139ft 478kts
25-May-19 23:27 35.216302 -89.405368 65 37140ft 478kts
25-May-19 23:28 35.268642 -89.255688 65 37134ft 478kts
25-May-19 23:29 35.321080 -89.106179 65 37144ft 478kts
25-May-19 23:30 35.373675 -88.956713 65 37155ft 478kts
25-May-19 23:31 35.426212 -88.807928 65 37156ft 477kts
25-May-19 23:32 35.478918 -88.659183 64 37157ft 477kts
25-May-19 23:33 35.531826 -88.510379 64 37157ft 477kts
25-May-19 23:34 35.584193 -88.360629 66 37152ft 477kts
25-May-19 23:35 35.633368 -88.211615 66 37144ft 477kts
25-May-19 23:36 35.683391 -88.060891 66 37146ft 477kts
25-May-19 23:37 35.733585 -87.910219 66 37147ft 477kts
25-May-19 23:38 35.784068 -87.759241 66 37148ft 477kts
25-May-19 23:39 35.834756 -87.608212 66 37149ft 477kts
25-May-19 23:40 35.884871 -87.457365 66 37149ft 477kts
25-May-19 23:41 35.934150 -87.305168 67 37144ft 477kts
25-May-19 23:42 35.983458 -87.153501 67 37139ft 477kts
25-May-19 23:43 36.033009 -87.001568 66 37137ft 472kts
25-May-19 23:44 36.081853 -86.852406 65 37137ft 466kts
25-May-19 23:45 36.130794 -86.703515 65 37158ft 467kts
25-May-19 23:46 36.178376 -86.554633 66 37169ft 467kts
25-May-19 23:47 36.225163 -86.404787 66 37176ft 467kts
25-May-19 23:48 36.272292 -86.254503 67 37167ft 467kts
25-May-19 23:49 36.319475 -86.104587 66 37173ft 467kts
25-May-19 23:50 36.366806 -85.954766 66 37175ft 467kts
25-May-19 23:51 36.414339 -85.804896 66 37178ft 467kts
25-May-19 23:52 36.462064 -85.655004 66 37184ft 467kts
25-May-19 23:53 36.509995 -85.505055 66 37184ft 467kts
25-May-19 23:54 36.558009 -85.355428 66 37191ft 467kts
25-May-19 23:55 36.606470 -85.205084 66 37198ft 468kts
25-May-19 23:57 36.653189 -85.053856 67 37201ft 468kts
25-May-19 23:58 36.699216 -84.902469 67 37203ft 469kts
25-May-19 23:59 36.745610 -84.750635 67 37207ft 468kts
26-May-19 00:00 36.792042 -84.599317 67 37204ft 468kts
26-May-19 00:01 36.837932 -84.447233 67 37202ft 468kts
26-May-19 00:02 36.883318 -84.295195 68 37198ft 469kts
26-May-19 00:03 36.929013 -84.142834 67 37198ft 468kts
26-May-19 00:04 36.974282 -83.990660 69 37192ft 469kts
26-May-19 00:05 37.016277 -83.836532 69 37192ft 474kts
26-May-19 00:06 37.058810 -83.679532 69 37193ft 478kts
26-May-19 00:07 37.101849 -83.521439 68 37188ft 481kts
26-May-19 00:08 37.145686 -83.361188 68 37188ft 483kts
26-May-19 00:09 37.189492 -83.201998 69 37194ft 483kts
26-May-19 00:10 37.233373 -83.043131 68 37209ft 484kts
26-May-19 00:11 37.277497 -82.884129 68 37193ft 480kts
26-May-19 00:12 37.321416 -82.726631 68 37194ft 478kts
26-May-19 00:13 37.365457 -82.569427 68 37194ft 478kts
26-May-19 00:14 37.409693 -82.412253 68 37204ft 477kts
26-May-19 00:15 37.454381 -82.254348 68 37202ft 477kts
26-May-19 00:16 37.498920 -82.097599 68 37232ft 477kts
26-May-19 00:17 37.543802 -81.940336 68 37243ft 477kts
26-May-19 00:17 37.581496 -81.808817 67 37265ft 478kts
26-May-19 00:19 37.634208 -81.625743 67 37252ft 477kts
26-May-19 00:20 37.679719 -81.468460 67 37240ft 478kts
26-May-19 00:20 37.717878 -81.337138 67 37230ft 477kts
26-May-19 00:22 37.771450 -81.153755 67 37227ft 478kts
26-May-19 00:22 37.814998 -81.025146 63 37228ft 479kts
26-May-19 00:23 37.869427 -80.871293 63 37229ft 483kts
26-May-19 00:24 37.924282 -80.716203 63 37230ft 483kts
26-May-19 00:25 37.978858 -80.561147 63 37232ft 483kts
26-May-19 00:26 38.033645 -80.406023 63 37233ft 483kts
26-May-19 00:27 38.088738 -80.250734 63 37226ft 483kts
26-May-19 00:28 38.143846 -80.094696 63 37244ft 483kts
26-May-19 00:29 38.198606 -79.939274 63 37264ft 483kts
26-May-19 00:30 38.253430 -79.784248 63 37267ft 482kts
26-May-19 00:31 38.307899 -79.627492 63 36211ft 481kts
26-May-19 00:32 38.360112 -79.474435 63 34232ft 463kts
26-May-19 00:33 38.409878 -79.327802 67 32248ft 461kts
26-May-19 00:34 38.446465 -79.159773 76 29773ft 504kts
26-May-19 00:35 38.476356 -78.988296 76 27521ft 489kts
26-May-19 00:36 38.505042 -78.821839 77 25322ft 472kts
26-May-19 00:37 38.530098 -78.660952 77 23127ft 449kts
26-May-19 00:38 38.554217 -78.508975 76 20944ft 428kts
26-May-19 00:39 38.577702 -78.362987 75 18772ft 413kts
26-May-19 00:40 38.603285 -78.228983 67 16657ft 397kts
26-May-19 00:41 38.645102 -78.101155 65 14498ft 381kts
26-May-19 00:42 38.685099 -77.976484 65 13099ft 375kts
26-May-19 00:43 38.723225 -77.857408 64 11687ft 346kts
26-May-19 00:44 38.775853 -77.765168 43 10881ft 297kts
26-May-19 00:45 38.826949 -77.683019 61 9576ft 289kts
26-May-19 00:46 38.856599 -77.588949 64 8388ft 278kts
26-May-19 00:47 38.884572 -77.500609 64 7426ft 262kts
26-May-19 00:48 38.910602 -77.418743 64 6355ft 243kts
26-May-19 00:49 38.935919 -77.339396 65 4936ft 237kts
26-May-19 00:50 38.960602 -77.262155 66 3528ft 231kts
26-May-19 00:51 38.982968 -77.187937 86 2953ft 209kts
26-May-19 00:52 38.951456 -77.131685 151 2928ft 168kts
26-May-19 00:53 38.917510 -77.102678 131 2226ft 144kts
26-May-19 00:54 38.893602 -77.063491 133 1168ft 139kts
26-May-19 00:55 38.862007 -77.038792 176 93ft 138kts
26-May-19 00:56 38.843957 -77.037832 265 22ft 3kts
26-May-19 00:57 38.844692 -77.041249 348 22ft 16kts
26-May-19 00:58 38.846443 -77.041995 333 22ft 0kts
26-May-19 00:59 38.846443 -77.041995 333 22ft 0kts

Navigation Log

Ident Type
Flight plan parsing failed, navigation log unavailable